Time;durP1;ratioP1;P1;durP2;ratioP2;P2;SDS_P1;SDS_P2;PMS_P1;PMS_P2;Temp;Humidity;BMP_temperature;BMP_pressure;BME280_temperature;BME280_humidity;BME280_pressure;Samples;Min_cycle;Max_cycle;Signal;HPM_P1;HPM_P2
2024/01/11 00:02:12;;;;;;;;;;;;;;;17.26;58.12;102268.50;7390364;19;1851;-39
2024/01/11 00:04:41;;;;;;;;;;;;;;;17.05;58.36;102274.13;7392106;19;1236;-39
2024/01/11 00:07:09;;;;;;;;;;;;;;;16.86;58.90;102274.28;7390880;19;1391;-39
2024/01/11 00:09:44;;;;;;;;;;;;;;;16.76;59.24;102283.72;7389826;19;1184;-40
2024/01/11 00:12:12;;;;;;;;;;;;;;;16.67;59.39;102268.19;7389993;19;1142;-40
2024/01/11 00:14:41;;;;;;;;;;;;;;;16.81;58.76;102267.41;7392068;19;1344;-39
2024/01/11 00:17:09;;;;;;;;;;;;;;;17.08;58.28;102273.94;7391084;19;1451;-39
2024/01/11 00:19:38;;;;;;;;;;;;;;;17.20;58.03;102271.53;7390813;19;1388;-39
2024/01/11 00:22:06;;;;;;;;;;;;;;;17.22;57.90;102269.63;7390066;19;1831;-40
2024/01/11 00:24:34;;;;;;;;;;;;;;;16.98;58.21;102261.19;7389766;19;1181;-40
2024/01/11 00:27:05;;;;;;;;;;;;;;;16.85;58.98;102258.31;7391682;19;1005;-40
2024/01/11 00:29:34;;;;;;;;;;;;;;;16.72;58.95;102246.56;7390076;19;1106;-40
2024/01/11 00:32:02;;;;;;;;;;;;;;;16.58;59.47;102245.50;7390017;19;1586;-40
2024/01/11 00:34:30;;;;;;;;;;;;;;;16.77;58.73;102247.16;7389769;19;1565;-39
2024/01/11 00:36:59;;;;;;;;;;;;;;;17.03;58.30;102249.31;7389716;19;1538;-39
2024/01/11 00:39:27;;;;;;;;;;;;;;;17.18;58.07;102254.72;7389885;19;1669;-40
2024/01/11 00:41:55;;;;;;;;;;;;;;;17.11;57.99;102256.88;7389325;19;1560;-39
2024/01/11 00:44:26;;;;;;;;;;;;;;;16.92;58.25;102258.88;7386594;19;1855;-40
2024/01/11 00:46:55;;;;;;;;;;;;;;;16.70;58.87;102236.81;7389443;19;1213;-40
2024/01/11 00:49:23;;;;;;;;;;;;;;;16.61;58.88;102242.69;7389614;19;1565;-40
2024/01/11 00:51:52;;;;;;;;;;;;;;;16.45;59.45;102242.66;7389362;19;1220;-39
2024/01/11 00:54:20;;;;;;;;;;;;;;;16.35;59.89;102236.06;7390133;19;1508;-40
2024/01/11 00:56:48;;;;;;;;;;;;;;;16.18;60.01;102228.13;7390614;19;962;-40
2024/01/11 00:59:17;;;;;;;;;;;;;;;16.35;59.99;102224.53;7390204;19;1102;-40
2024/01/11 01:01:51;;;;;;;;;;;;;;;16.72;58.64;102217.19;7374260;19;1942;-40
2024/01/11 01:04:20;;;;;;;;;;;;;;;17.06;57.90;102206.34;7387534;19;1847;-40
2024/01/11 01:06:48;;;;;;;;;;;;;;;17.14;57.43;102223.78;7393445;19;1261;-40
2024/01/11 01:09:17;;;;;;;;;;;;;;;16.95;57.94;102221.25;7397267;19;1439;-39
2024/01/11 01:11:45;;;;;;;;;;;;;;;16.72;58.63;102234.06;7396165;19;1351;-40
2024/01/11 01:14:13;;;;;;;;;;;;;;;16.65;58.67;102227.34;7396031;19;1550;-40
2024/01/11 01:16:41;;;;;;;;;;;;;;;16.54;59.10;102235.94;7395527;19;1381;-39
2024/01/11 01:19:12;;;;;;;;;;;;;;;16.75;58.48;102223.22;7396785;19;1648;-39
2024/01/11 01:21:41;;;;;;;;;;;;;;;17.02;57.78;102204.78;7396494;19;1478;-39
2024/01/11 01:24:09;;;;;;;;;;;;;;;17.27;57.22;102206.94;7395649;19;1850;-40
2024/01/11 01:26:37;;;;;;;;;;;;;;;17.18;56.98;102187.88;7395993;19;1261;-39
2024/01/11 01:29:06;;;;;;;;;;;;;;;16.90;58.02;102194.81;7395883;19;1638;-40
2024/01/11 01:31:37;;;;;;;;;;;;;;;16.70;58.66;102183.41;7395823;19;1556;-39
2024/01/11 01:34:05;;;;;;;;;;;;;;;16.58;58.82;102194.78;7395671;19;1617;-40
2024/01/11 01:36:36;;;;;;;;;;;;;;;16.54;58.72;102182.53;7396675;19;1577;-39
2024/01/11 01:39:05;;;;;;;;;;;;;;;16.83;58.04;102180.06;7396105;19;1139;-39
2024/01/11 01:41:33;;;;;;;;;;;;;;;17.10;57.27;102197.19;7396278;19;1558;-40
2024/01/11 01:44:02;;;;;;;;;;;;;;;17.29;57.04;102185.47;7392934;19;1911;-39
2024/01/11 01:46:30;;;;;;;;;;;;;;;17.05;57.47;102183.25;7394393;19;1221;-39
2024/01/11 01:48:59;;;;;;;;;;;;;;;16.80;58.14;102182.91;7395533;19;1327;-39
2024/01/11 01:51:29;;;;;;;;;;;;;;;16.70;58.58;102175.38;7396139;19;1295;-40
2024/01/11 01:54:01;;;;;;;;;;;;;;;16.55;58.88;102172.72;7396268;19;1042;-44
2024/01/11 01:56:29;;;;;;;;;;;;;;;16.67;58.30;102177.34;7394920;19;1811;-40
2024/01/11 01:58:58;;;;;;;;;;;;;;;16.90;57.60;102168.09;7393808;19;1257;-39
2024/01/11 02:01:27;;;;;;;;;;;;;;;17.18;57.09;102166.50;7379082;19;1458;-40
2024/01/11 02:03:56;;;;;;;;;;;;;;;17.18;56.91;102171.84;7393180;19;1875;-40
2024/01/11 02:06:29;;;;;;;;;;;;;;;16.88;57.44;102153.97;7394876;19;1643;-39
2024/01/11 02:09:02;;;;;;;;;;;;;;;16.66;58.53;102144.47;7395524;19;1244;-40
2024/01/11 02:11:31;;;;;;;;;;;;;;;16.51;58.73;102156.00;7394267;19;1549;-40
2024/01/11 02:14:00;;;;;;;;;;;;;;;16.53;58.89;102154.09;7394173;19;1183;-40
2024/01/11 02:16:28;;;;;;;;;;;;;;;16.80;57.78;102140.16;7393843;19;1431;-39
2024/01/11 02:18:56;;;;;;;;;;;;;;;17.02;57.45;102145.16;7394024;19;1801;-40
2024/01/11 02:21:25;;;;;;;;;;;;;;;17.19;57.10;102138.81;7394839;19;1185;-40
2024/01/11 02:24:01;;;;;;;;;;;;;;;16.95;57.29;102133.97;7393092;19;1854;-40
2024/01/11 02:26:29;;;;;;;;;;;;;;;16.70;57.99;102124.63;7393792;19;1217;-39
2024/01/11 02:28:57;;;;;;;;;;;;;;;16.61;58.64;102114.50;7393650;19;1546;-40
2024/01/11 02:31:26;;;;;;;;;;;;;;;16.54;58.71;102120.25;7392897;19;1256;-40
2024/01/11 02:33:55;;;;;;;;;;;;;;;16.68;58.06;102118.53;7394241;19;1165;-39
2024/01/11 02:36:23;;;;;;;;;;;;;;;16.97;57.35;102109.81;7394058;19;1604;-40
2024/01/11 02:38:53;;;;;;;;;;;;;;;17.21;57.00;102107.50;7393548;19;1543;-40
2024/01/11 02:41:24;;;;;;;;;;;;;;;17.14;56.89;102124.88;7393893;19;1620;-39
2024/01/11 02:43:52;;;;;;;;;;;;;;;16.83;57.58;102107.94;7391540;19;1859;-40
2024/01/11 02:46:20;;;;;;;;;;;;;;;16.63;58.18;102101.91;7393486;19;1410;-39
2024/01/11 02:48:49;;;;;;;;;;;;;;;16.47;58.47;102115.28;7391879;19;1065;-40
2024/01/11 02:51:17;;;;;;;;;;;;;;;16.52;58.51;102117.66;7394173;19;974;-39
2024/01/11 02:53:45;;;;;;;;;;;;;;;16.78;57.80;102102.81;7392988;19;1558;-40
2024/01/11 02:56:14;;;;;;;;;;;;;;;17.00;57.16;102097.13;7391339;19;1524;-40
2024/01/11 02:58:45;;;;;;;;;;;;;;;17.18;56.56;102094.31;7393394;19;1638;-40
2024/01/11 03:01:13;;;;;;;;;;;;;;;16.22;57.12;102019.69;7376203;19;1542;-40
2024/01/11 03:03:41;;;;;;;;;;;;;;;16.45;58.19;102058.44;7392540;19;1867;-39
2024/01/11 03:06:09;;;;;;;;;;;;;;;16.51;58.30;102102.59;7392945;19;1164;-40
2024/01/11 03:08:38;;;;;;;;;;;;;;;16.41;58.50;102088.03;7393423;19;1523;-39
2024/01/11 03:11:06;;;;;;;;;;;;;;;16.65;57.94;102089.34;7394041;19;1261;-39
2024/01/11 03:13:35;;;;;;;;;;;;;;;16.91;57.10;102089.66;7392245;19;1860;-39
2024/01/11 03:16:07;;;;;;;;;;;;;;;17.23;56.60;102084.22;7391671;19;1652;-39
2024/01/11 03:18:35;;;;;;;;;;;;;;;17.16;56.60;102078.38;7392118;19;1468;-40
2024/01/11 03:21:04;;;;;;;;;;;;;;;16.89;57.32;102081.75;7393551;19;1565;-39
2024/01/11 03:23:32;;;;;;;;;;;;;;;16.69;58.05;102082.88;7391875;19;1853;-40
2024/01/11 03:26:00;;;;;;;;;;;;;;;16.50;58.42;102079.50;7391978;19;1451;-40
2024/01/11 03:28:29;;;;;;;;;;;;;;;16.42;58.62;102071.09;7390343;19;1507;-39
2024/01/11 03:30:57;;;;;;;;;;;;;;;16.73;57.97;102074.66;7392019;19;1316;-40
2024/01/11 03:33:28;;;;;;;;;;;;;;;16.98;57.47;102053.59;7391300;19;1166;-39
2024/01/11 03:35:56;;;;;;;;;;;;;;;17.19;56.76;102061.28;7391407;19;1548;-39
2024/01/11 03:38:24;;;;;;;;;;;;;;;16.97;57.03;102051.00;7391647;19;1570;-40
2024/01/11 03:40:53;;;;;;;;;;;;;;;16.72;58.00;102056.94;7391494;19;1451;-40
2024/01/11 03:43:21;;;;;;;;;;;;;;;16.49;58.53;102045.72;7391435;19;1879;-39
2024/01/11 03:45:49;;;;;;;;;;;;;;;16.41;58.66;102048.00;7391815;19;1812;-40
2024/01/11 03:48:18;;;;;;;;;;;;;;;16.63;58.03;102047.63;7391844;19;1174;-40
2024/01/11 03:50:49;;;;;;;;;;;;;;;16.94;57.36;102035.19;7391571;19;1470;-40
2024/01/11 03:53:17;;;;;;;;;;;;;;;17.25;56.46;102034.22;7391541;19;1495;-38
2024/01/11 03:55:45;;;;;;;;;;;;;;;17.07;56.70;102023.66;7391087;19;1546;-40
2024/01/11 03:58:14;;;;;;;;;;;;;;;16.77;57.40;102031.66;7391040;19;1433;-40
2024/01/11 04:00:42;;;;;;;;;;;;;;;16.58;58.00;102023.84;7374976;19;1434;-38
2024/01/11 04:03:10;;;;;;;;;;;;;;;16.53;58.07;102025.91;7391170;19;1623;-40
2024/01/11 04:05:39;;;;;;;;;;;;;;;17.18;56.50;102022.16;7391365;19;1632;-39
2024/01/11 04:08:10;;;;;;;;;;;;;;;17.49;55.46;102005.97;7391908;19;1472;-40
2024/01/11 04:10:38;;;;;;;;;;;;;;;17.61;55.36;101992.78;7392092;19;1275;-40
2024/01/11 04:13:07;;;;;;;;;;;;;;;17.69;55.23;101998.50;7390145;19;1184;-40
2024/01/11 04:15:35;;;;;;;;;;;;;;;17.54;55.55;101994.09;7389740;19;1241;-38
2024/01/11 04:18:03;;;;;;;;;;;;;;;17.50;55.78;101999.63;7390158;19;1562;-40
2024/01/11 04:20:31;;;;;;;;;;;;;;;17.48;55.88;102003.38;7390394;19;1545;-39
2024/01/11 04:23:00;;;;;;;;;;;;;;;17.48;55.66;101998.03;7390015;19;1173;-41
2024/01/11 04:25:31;;;;;;;;;;;;;;;17.57;55.53;101985.91;7391683;19;1931;-39
2024/01/11 04:27:59;;;;;;;;;;;;;;;17.61;55.20;101979.41;7394933;19;1605;-40
2024/01/11 04:30:27;;;;;;;;;;;;;;;17.83;54.54;101994.94;7391171;19;1545;-39
2024/01/11 04:32:56;;;;;;;;;;;;;;;17.95;54.19;101980.81;7394181;19;1288;-39
2024/01/11 04:35:24;;;;;;;;;;;;;;;18.03;54.06;101983.00;7393247;19;1471;-40
2024/01/11 04:37:52;;;;;;;;;;;;;;;17.83;54.53;101976.22;7394444;19;1577;-40
2024/01/11 04:40:21;;;;;;;;;;;;;;;18.03;54.18;101983.00;7396424;19;1260;-39
2024/01/11 04:42:51;;;;;;;;;;;;;;;18.26;53.85;101987.72;7400810;19;1543;-38
2024/01/11 04:45:20;;;;;;;;;;;;;;;17.89;54.27;101983.88;7398143;19;1875;-40
2024/01/11 04:47:48;;;;;;;;;;;;;;;17.43;55.59;101984.09;7400021;19;1531;-39
2024/01/11 04:50:16;;;;;;;;;;;;;;;17.22;56.49;101996.97;7400783;19;1225;-40
2024/01/11 04:52:45;;;;;;;;;;;;;;;17.50;55.87;101974.72;7397416;19;1536;-40
2024/01/11 04:55:13;;;;;;;;;;;;;;;17.71;55.06;101983.22;7396096;19;1236;-40
2024/01/11 04:57:41;;;;;;;;;;;;;;;17.98;54.17;101985.94;7395809;19;1384;-39
2024/01/11 05:00:13;;;;;;;;;;;;;;;18.13;53.83;101968.06;7391358;19;1402;-39
2024/01/11 05:02:41;;;;;;;;;;;;;;;18.25;53.69;101982.44;7381919;19;1469;-39
2024/01/11 05:05:10;;;;;;;;;;;;;;;17.77;54.34;101971.28;7392313;19;1844;-39
2024/01/11 05:07:38;;;;;;;;;;;;;;;17.35;55.64;101984.56;7395610;19;1526;-40
2024/01/11 05:10:07;;;;;;;;;;;;;;;17.32;55.63;101971.38;7397497;19;1007;-40
2024/01/11 05:12:36;;;;;;;;;;;;;;;17.61;54.86;101958.84;7396225;19;1210;-39
2024/01/11 05:15:05;;;;;;;;;;;;;;;17.76;54.84;101975.72;7317046;19;13894;-39
2024/01/11 05:17:36;;;;;;;;;;;;;;;17.80;54.94;101971.91;7396028;19;1483;-39
2024/01/11 05:20:05;;;;;;;;;;;;;;;17.66;55.28;101969.25;7395918;19;1289;-40
2024/01/11 05:22:33;;;;;;;;;;;;;;;17.40;55.79;101962.88;7396621;19;1110;-39
2024/01/11 05:25:02;;;;;;;;;;;;;;;17.08;56.74;101957.72;7394658;19;1867;-39
2024/01/11 05:27:30;;;;;;;;;;;;;;;16.89;57.34;101977.53;7395971;19;1522;-39
2024/01/11 05:29:58;;;;;;;;;;;;;;;16.98;57.05;101977.94;7395024;19;1507;-40
2024/01/11 05:32:27;;;;;;;;;;;;;;;17.21;56.57;101969.38;7394954;19;1649;-40
2024/01/11 05:34:58;;;;;;;;;;;;;;;17.54;56.04;101975.38;7395921;19;1492;-39
2024/01/11 05:37:26;;;;;;;;;;;;;;;17.55;55.88;101977.09;7396184;19;1487;-39
2024/01/11 05:39:56;;;;;;;;;;;;;;;17.50;55.73;101967.53;7396615;19;1192;-39
2024/01/11 05:42:25;;;;;;;;;;;;;;;17.52;55.68;101972.81;7395557;19;1218;-39
2024/01/11 05:44:54;;;;;;;;;;;;;;;16.88;55.42;101852.06;7392129;19;1856;-39
2024/01/11 05:47:22;;;;;;;;;;;;;;;17.46;55.92;101957.13;7395696;19;1491;-40
2024/01/11 05:49:51;;;;;;;;;;;;;;;17.43;56.00;101952.84;7395205;19;1859;-39
2024/01/11 05:52:22;;;;;;;;;;;;;;;17.47;55.19;101957.06;7394006;19;1721;-39
2024/01/11 05:54:51;;;;;;;;;;;;;;;17.40;55.20;101955.72;7395655;19;1202;-39
2024/01/11 05:57:19;;;;;;;;;;;;;;;17.58;54.91;101955.50;7394546;19;1822;-40
2024/01/11 05:59:47;;;;;;;;;;;;;;;17.66;54.54;101942.50;7394801;19;1528;-39
2024/01/11 06:02:16;;;;;;;;;;;;;;;17.89;54.32;101957.13;7381154;19;1392;-39
2024/01/11 06:04:44;;;;;;;;;;;;;;;17.89;54.38;101955.31;7395201;19;1847;-39
2024/01/11 06:07:12;;;;;;;;;;;;;;;17.96;54.20;101944.19;7395389;19;1772;-39
2024/01/11 06:09:43;;;;;;;;;;;;;;;17.74;54.60;101948.22;7395545;19;1441;-39
2024/01/11 06:12:13;;;;;;;;;;;;;;;17.30;55.45;101951.91;7394696;19;1272;-38
2024/01/11 06:14:41;;;;;;;;;;;;;;;17.08;56.03;101953.22;7394821;19;1429;-39
2024/01/11 06:17:10;;;;;;;;;;;;;;;17.39;55.16;101945.97;7395474;19;1286;-39
2024/01/11 06:19:39;;;;;;;;;;;;;;;17.56;54.74;101947.56;7395201;19;1493;-39
2024/01/11 06:22:07;;;;;;;;;;;;;;;17.78;54.07;101952.41;7394812;19;1523;-38
2024/01/11 06:24:35;;;;;;;;;;;;;;;17.93;53.81;101961.31;7393956;19;1850;-39
2024/01/11 06:27:07;;;;;;;;;;;;;;;18.07;53.55;101947.03;7396190;19;1101;-40
2024/01/11 06:29:35;;;;;;;;;;;;;;;18.02;53.60;101954.50;7396495;19;1861;-39
2024/01/11 06:32:04;;;;;;;;;;;;;;;17.61;54.36;101944.63;7396002;19;1491;-39
2024/01/11 06:34:32;;;;;;;;;;;;;;;17.27;54.90;101944.09;7396334;19;1629;-39
2024/01/11 06:37:00;;;;;;;;;;;;;;;17.43;54.32;101942.16;7390523;19;1356;-39
2024/01/11 06:39:29;;;;;;;;;;;;;;;17.86;53.36;101954.63;7388148;19;1482;-41
2024/01/11 06:41:57;;;;;;;;;;;;;;;17.84;53.70;101951.19;7391392;19;1221;-43
2024/01/11 06:44:28;;;;;;;;;;;;;;;17.91;53.29;101949.84;7391485;19;1858;-42
2024/01/11 06:46:57;;;;;;;;;;;;;;;18.17;52.13;101937.44;7381211;19;1368;-36
2024/01/11 06:49:25;;;;;;;;;;;;;;;18.21;51.87;101952.34;7384811;19;1199;-36
2024/01/11 06:51:53;;;;;;;;;;;;;;;18.31;51.95;101957.09;7388552;19;1212;-36
2024/01/11 06:54:22;;;;;;;;;;;;;;;18.27;51.82;101954.59;7390819;19;1468;-36
2024/01/11 06:56:50;;;;;;;;;;;;;;;18.26;52.09;101941.31;7390044;19;1201;-36
2024/01/11 06:59:18;;;;;;;;;;;;;;;18.27;51.98;101949.25;7390974;19;1155;-36
2024/01/11 07:01:49;;;;;;;;;;;;;;;18.29;52.13;101952.69;7376188;19;1554;-34
2024/01/11 07:04:18;;;;;;;;;;;;;;;18.24;52.35;101938.75;7387428;19;1853;-34
2024/01/11 07:06:46;;;;;;;;;;;;;;;18.25;52.44;101945.81;7388827;19;1413;-34
2024/01/11 07:09:16;;;;;;;;;;;;;;;18.20;52.48;101936.38;7390606;19;1512;-34
2024/01/11 07:11:44;;;;;;;;;;;;;;;18.12;52.29;101936.88;7387982;19;1341;-34
2024/01/11 07:14:13;;;;;;;;;;;;;;;18.00;52.42;101940.34;7388060;19;1401;-33
2024/01/11 07:16:41;;;;;;;;;;;;;;;17.97;52.05;101945.94;7390540;19;1494;-33
2024/01/11 07:19:12;;;;;;;;;;;;;;;17.96;52.44;101933.50;7391108;19;1309;-33
2024/01/11 07:21:40;;;;;;;;;;;;;;;17.96;52.08;101928.13;7391032;19;1205;-33
2024/01/11 07:24:09;;;;;;;;;;;;;;;18.03;52.10;101924.13;7391302;19;1238;-33
2024/01/11 07:26:37;;;;;;;;;;;;;;;18.02;52.21;101925.91;7389693;19;1860;-33
2024/01/11 07:29:05;;;;;;;;;;;;;;;18.00;51.98;101935.84;7389973;19;1479;-34
2024/01/11 07:31:34;;;;;;;;;;;;;;;18.00;52.31;101935.00;7390736;19;1527;-35
2024/01/11 07:34:02;;;;;;;;;;;;;;;18.00;52.04;101951.06;7391436;19;1566;-34
2024/01/11 07:36:33;;;;;;;;;;;;;;;18.00;52.26;101935.84;7390966;19;1514;-34
2024/01/11 07:39:02;;;;;;;;;;;;;;;18.09;52.12;101932.59;7390998;19;1173;-35
2024/01/11 07:41:30;;;;;;;;;;;;;;;18.20;51.61;101928.34;7390809;19;1511;-34
2024/01/11 07:43:59;;;;;;;;;;;;;;;18.17;52.01;101932.09;7386245;19;1198;-34
2024/01/11 07:46:28;;;;;;;;;;;;;;;18.15;52.00;101919.78;7387550;19;1868;-34
2024/01/11 07:48:56;;;;;;;;;;;;;;;18.20;52.12;101913.13;7389887;19;1473;-34
2024/01/11 07:51:25;;;;;;;;;;;;;;;18.15;52.00;101917.94;7391919;19;1038;-34
2024/01/11 07:53:55;;;;;;;;;;;;;;;18.17;52.25;101925.88;7390825;19;1519;-34
2024/01/11 07:56:24;;;;;;;;;;;;;;;18.28;51.87;101905.47;7378868;19;1599;-34
2024/01/11 07:58:53;;;;;;;;;;;;;;;18.27;51.88;101900.19;7367927;19;1150;-34
2024/01/11 08:01:21;;;;;;;;;;;;;;;18.33;51.94;101902.47;7386341;19;1559;-34
2024/01/11 08:03:51;;;;;;;;;;;;;;;18.28;51.99;101889.41;7376609;19;1240;-34
2024/01/11 08:06:20;;;;;;;;;;;;;;;18.33;52.00;101890.91;7387133;19;2207;-34
2024/01/11 08:08:51;;;;;;;;;;;;;;;18.33;52.20;101877.50;7389122;19;1531;-34
2024/01/11 08:11:22;;;;;;;;;;;;;;;18.42;51.93;101887.59;7390843;19;1538;-34
2024/01/11 08:13:51;;;;;;;;;;;;;;;18.44;51.91;101882.97;7388977;19;1114;-34
2024/01/11 08:16:19;;;;;;;;;;;;;;;18.48;52.00;101881.81;7388887;19;1616;-34
2024/01/11 08:18:48;;;;;;;;;;;;;;;18.42;52.18;101884.91;7387639;19;1567;-34
2024/01/11 08:21:17;;;;;;;;;;;;;;;18.42;51.97;101882.22;7387510;19;1237;-34
2024/01/11 08:23:48;;;;;;;;;;;;;;;18.52;52.07;101869.91;7390283;19;1164;-34
2024/01/11 08:26:18;;;;;;;;;;;;;;;18.55;51.84;101864.34;7387649;19;1855;-34
2024/01/11 08:28:49;;;;;;;;;;;;;;;18.62;51.70;101883.53;7388125;19;1791;-34
2024/01/11 08:31:18;;;;;;;;;;;;;;;18.63;51.68;101871.88;7388676;19;1581;-34
2024/01/11 08:33:46;;;;;;;;;;;;;;;18.44;52.35;101861.56;7388627;19;1201;-34
2024/01/11 08:36:14;;;;;;;;;;;;;;;18.00;53.13;101874.28;7387357;19;1232;-34
2024/01/11 08:38:43;;;;;;;;;;;;;;;17.69;54.11;101870.94;7386130;19;1465;-34
2024/01/11 08:41:11;;;;;;;;;;;;;;;16.74;54.45;101745.19;7389858;19;1063;-34
2024/01/11 08:43:39;;;;;;;;;;;;;;;17.67;54.06;101864.00;7387266;19;1730;-34
2024/01/11 08:46:10;;;;;;;;;;;;;;;17.99;53.27;101864.56;7384956;19;1850;-34
2024/01/11 08:48:39;;;;;;;;;;;;;;;18.32;52.75;101854.34;7384849;19;2382;-34
2024/01/11 08:51:07;;;;;;;;;;;;;;;18.53;52.21;101850.22;7385094;19;1506;-34
2024/01/11 08:53:35;;;;;;;;;;;;;;;18.60;52.03;101846.16;7385619;19;1792;-34
2024/01/11 08:56:04;;;;;;;;;;;;;;;18.51;51.59;101854.81;7389183;19;1184;-35
2024/01/11 08:58:32;;;;;;;;;;;;;;;18.68;50.64;101840.25;7385828;19;1471;-36
2024/01/11 09:01:00;;;;;;;;;;;;;;;18.64;51.30;101841.41;7387613;19;1032;-36
2024/01/11 09:03:31;;;;;;;;;;;;;;;18.63;51.35;101845.94;7374476;19;2303;-36
2024/01/11 09:05:59;;;;;;;;;;;;;;;18.68;51.41;101824.16;7386843;19;1842;-36
2024/01/11 09:08:28;;;;;;;;;;;;;;;18.66;51.67;101821.63;7387848;19;1415;-36
2024/01/11 09:10:58;;;;;;;;;;;;;;;18.68;51.86;101824.16;7385586;19;1198;-36
2024/01/11 09:13:27;;;;;;;;;;;;;;;18.81;51.67;101827.72;7387321;19;1090;-36
2024/01/11 09:15:55;;;;;;;;;;;;;;;18.94;51.70;101808.09;7388188;19;1846;-36
2024/01/11 09:18:23;;;;;;;;;;;;;;;18.97;51.78;101814.09;7387041;19;1162;-36
2024/01/11 09:20:56;;;;;;;;;;;;;;;19.04;51.51;101791.25;7387167;19;1126;-36
2024/01/11 09:23:24;;;;;;;;;;;;;;;18.94;52.06;101797.38;7387868;19;1550;-36
2024/01/11 09:25:52;;;;;;;;;;;;;;;18.94;52.16;101787.53;7386546;19;1876;-36
2024/01/11 09:28:21;;;;;;;;;;;;;;;19.00;52.07;101789.78;7393247;19;1242;-36
2024/01/11 09:30:49;;;;;;;;;;;;;;;19.11;51.95;101782.78;7395330;19;1051;-36
2024/01/11 09:33:18;;;;;;;;;;;;;;;19.08;51.91;101765.09;7393617;19;1234;-36
2024/01/11 09:35:46;;;;;;;;;;;;;;;19.14;51.99;101769.13;7395452;19;1511;-36
2024/01/11 09:38:17;;;;;;;;;;;;;;;19.11;52.07;101764.00;7394748;19;1646;-36
2024/01/11 09:40:45;;;;;;;;;;;;;;;19.16;51.96;101754.66;7395638;19;1097;-37
2024/01/11 09:43:14;;;;;;;;;;;;;;;19.16;52.18;101743.94;7393288;19;1991;-36
2024/01/11 09:45:42;;;;;;;;;;;;;;;19.26;51.78;101744.13;7392678;19;1846;-36
2024/01/11 09:48:12;;;;;;;;;;;;;;;19.13;52.29;101741.47;7394325;19;1119;-36
2024/01/11 09:50:41;;;;;;;;;;;;;;;19.18;52.38;101746.47;7394137;19;1586;-33
2024/01/11 09:53:10;;;;;;;;;;;;;;;19.18;52.21;101722.34;7324086;19;13882;-33
2024/01/11 09:55:41;;;;;;;;;;;;;;;19.16;52.28;101730.53;7391056;19;1630;-33
2024/01/11 09:58:10;;;;;;;;;;;;;;;19.14;52.14;101723.53;7392446;19;1389;-33
2024/01/11 10:00:40;;;;;;;;;;;;;;;19.12;52.09;101722.81;7393995;19;1854;-33
2024/01/11 10:03:09;;;;;;;;;;;;;;;19.14;52.82;101743.19;7378114;19;1327;-34
2024/01/11 10:05:38;;;;;;;;;;;;;;;19.14;52.38;101723.53;7394366;19;1859;-34
2024/01/11 10:08:06;;;;;;;;;;;;;;;19.11;52.43;101710.38;7391808;19;1520;-34
2024/01/11 10:10:34;;;;;;;;;;;;;;;19.11;52.57;101699.66;7395180;19;1097;-34
2024/01/11 10:13:06;;;;;;;;;;;;;;;19.17;52.24;101677.75;7391236;19;1180;-34
2024/01/11 10:15:34;;;;;;;;;;;;;;;19.19;52.10;101690.06;7393862;19;1145;-34
2024/01/11 10:18:02;;;;;;;;;;;;;;;19.20;52.37;101690.91;7392076;19;1562;-34
2024/01/11 10:20:32;;;;;;;;;;;;;;;19.18;52.39;101687.50;7393107;19;1996;-34
2024/01/11 10:23:01;;;;;;;;;;;;;;;19.29;52.22;101682.19;7391614;19;1506;-34
2024/01/11 10:25:29;;;;;;;;;;;;;;;19.21;52.35;101665.81;7392067;19;1855;-34
2024/01/11 10:27:57;;;;;;;;;;;;;;;19.27;52.30;101686.81;7391104;19;1164;-34
2024/01/11 10:30:28;;;;;;;;;;;;;;;19.21;52.35;101672.03;7391149;19;1416;-35
2024/01/11 10:33:00;;;;;;;;;;;;;;;19.17;52.34;101653.63;7388589;19;1397;-35
2024/01/11 10:35:28;;;;;;;;;;;;;;;19.20;52.73;101667.66;7390854;19;1437;-34
2024/01/11 10:37:58;;;;;;;;;;;;;;;19.17;52.71;101654.47;7391023;19;1510;-34
2024/01/11 10:40:26;;;;;;;;;;;;;;;19.23;52.34;101659.38;7393434;19;1221;-34
2024/01/11 10:42:55;;;;;;;;;;;;;;;19.22;52.53;101646.09;7392801;19;1114;-34
2024/01/11 10:45:24;;;;;;;;;;;;;;;19.24;52.68;101636.13;7392847;19;1531;-35
2024/01/11 10:47:56;;;;;;;;;;;;;;;19.17;52.53;101621.44;7393548;19;1535;-34
2024/01/11 10:50:26;;;;;;;;;;;;;;;19.30;52.72;101627.59;7392141;19;1277;-34
2024/01/11 10:53:02;;;;;;;;;;;;;;;19.24;52.62;101607.47;7391835;19;1273;-34
2024/01/11 10:55:31;;;;;;;;;;;;;;;19.25;52.54;101608.31;7390922;19;1558;-34
2024/01/11 10:58:01;;;;;;;;;;;;;;;19.25;53.00;101613.69;7390755;19;1399;-34
2024/01/11 11:00:29;;;;;;;;;;;;;;;19.22;52.95;101597.84;7392184;19;1499;-34
2024/01/11 11:03:01;;;;;;;;;;;;;;;19.18;53.00;101597.22;7376485;19;1603;-34
2024/01/11 11:05:31;;;;;;;;;;;;;;;19.23;53.00;101594.16;7389462;19;1522;-35
2024/01/11 11:08:01;;;;;;;;;;;;;;;19.24;53.06;101580.66;7389162;19;1845;-34
2024/01/11 11:10:30;;;;;;;;;;;;;;;19.16;53.05;101579.50;7392985;19;1197;-35
2024/01/11 11:13:00;;;;;;;;;;;;;;;19.26;52.99;101576.03;7392388;19;1440;-34
2024/01/11 11:15:29;;;;;;;;;;;;;;;19.12;53.19;101570.88;7390736;19;1504;-34
2024/01/11 11:18:00;;;;;;;;;;;;;;;19.09;53.28;101560.34;7391391;19;1711;-34
2024/01/11 11:20:29;;;;;;;;;;;;;;;19.07;52.98;101552.44;7392415;19;1069;-34
2024/01/11 11:23:05;;;;;;;;;;;;;;;19.04;53.24;101554.50;7391367;19;1673;-34
2024/01/11 11:25:33;;;;;;;;;;;;;;;19.02;53.17;101538.53;7389966;19;1586;-35
2024/01/11 11:28:04;;;;;;;;;;;;;;;19.00;53.38;101553.00;7389619;19;1849;-34
2024/01/11 11:30:32;;;;;;;;;;;;;;;18.99;53.17;101538.75;7391482;19;1626;-34
2024/01/11 11:33:09;;;;;;;;;;;;;;;19.00;53.02;101532.44;7391866;19;1487;-34
2024/01/11 11:35:38;;;;;;;;;;;;;;;19.06;52.97;101539.16;7391559;19;1168;-34
2024/01/11 11:38:07;;;;;;;;;;;;;;;19.01;53.03;101542.19;7391770;19;1194;-34
2024/01/11 11:40:39;;;;;;;;;;;;;;;19.00;53.00;101513.69;7393367;19;1037;-34
2024/01/11 11:43:08;;;;;;;;;;;;;;;19.04;53.21;101530.38;7392633;19;1479;-34
2024/01/11 11:45:36;;;;;;;;;;;;;;;19.06;52.89;101520.41;7391422;19;1554;-34
2024/01/11 11:48:28;;;;;;;;;;;;;;;19.03;53.04;101504.53;7388467;19;1972;-34
2024/01/11 11:51:04;;;;;;;;;;;;;;;19.04;52.85;101512.47;7390678;19;1685;-34
2024/01/11 11:53:35;;;;;;;;;;;;;;;19.14;52.75;101506.38;7391652;19;1210;-34
2024/01/11 11:56:04;;;;;;;;;;;;;;;19.05;52.75;101492.72;7390844;19;1221;-34
2024/01/11 11:58:33;;;;;;;;;;;;;;;18.37;52.75;101423.78;7392081;19;1544;-34
2024/01/11 12:01:02;;;;;;;;;;;;;;;19.07;52.60;101501.50;7390524;19;1550;-34
2024/01/11 12:03:35;;;;;;;;;;;;;;;19.05;52.69;101487.34;7371968;19;1572;-34
2024/01/11 12:06:04;;;;;;;;;;;;;;;19.05;52.84;101495.41;7389899;19;1857;-34
2024/01/11 12:08:33;;;;;;;;;;;;;;;19.12;52.65;101479.72;7388849;19;1217;-34
2024/01/11 12:11:01;;;;;;;;;;;;;;;19.20;52.57;101484.44;7388519;19;1504;-35
2024/01/11 12:13:30;;;;;;;;;;;;;;;19.14;52.62;101482.25;7388032;19;1672;-34
2024/01/11 12:15:59;;;;;;;;;;;;;;;19.11;52.73;101467.25;7386438;19;1443;-34
2024/01/11 12:18:27;;;;;;;;;;;;;;;19.13;52.67;101470.69;7384985;19;1440;-34
2024/01/11 12:21:00;;;;;;;;;;;;;;;19.13;52.94;101469.84;7388740;19;1279;-35
2024/01/11 12:23:30;;;;;;;;;;;;;;;19.10;52.78;101454.84;7389079;19;1226;-34
2024/01/11 12:25:58;;;;;;;;;;;;;;;19.11;52.85;101444.97;7388718;19;1494;-34
2024/01/11 12:28:27;;;;;;;;;;;;;;;19.08;52.90;101444.25;7385331;19;1928;-34
2024/01/11 12:30:55;;;;;;;;;;;;;;;19.05;52.83;101441.78;7389452;19;1597;-34
2024/01/11 12:33:23;;;;;;;;;;;;;;;19.03;53.15;101427.66;7383700;19;1405;-34
2024/01/11 12:35:52;;;;;;;;;;;;;;;19.02;52.86;101434.00;7387831;19;1205;-35
2024/01/11 12:38:23;;;;;;;;;;;;;;;19.04;53.05;101407.94;7387855;19;1456;-35
2024/01/11 12:40:52;;;;;;;;;;;;;;;19.01;53.00;101400.09;7388532;19;1434;-34
2024/01/11 12:43:20;;;;;;;;;;;;;;;18.91;53.12;101415.22;7386799;19;1245;-34
2024/01/11 12:45:48;;;;;;;;;;;;;;;18.85;53.69;101419.22;7384284;19;1530;-34
2024/01/11 12:48:18;;;;;;;;;;;;;;;18.81;53.95;101415.06;7384505;19;1844;-35
2024/01/11 12:50:47;;;;;;;;;;;;;;;18.81;53.84;101406.19;7387671;19;1491;-34
2024/01/11 12:53:17;;;;;;;;;;;;;;;18.82;54.06;101423.94;7387713;19;1408;-34
2024/01/11 12:55:49;;;;;;;;;;;;;;;18.74;54.20;101410.25;7386571;19;1571;-34
2024/01/11 12:58:21;;;;;;;;;;;;;;;18.78;54.19;101414.41;7385477;19;1662;-34